Time;durP1;ratioP1;P1;durP2;ratioP2;P2;SDS_P1;SDS_P2;PMS_P1;PMS_P2;Temp;Humidity;BMP_temperature;BMP_pressure;BME280_temperature;BME280_humidity;BME280_pressure;Samples;Min_cycle;Max_cycle;Signal;HPM_P1;HPM_P2
2021/04/14 00:00:32;;;;;;;5.27;4.00;;;4.00;99.90;;;;;;5030216;28;20540;-65
2021/04/14 00:02:59;;;;;;;5.60;3.80;;;4.00;99.90;;;;;;5033513;28;20682;-64
2021/04/14 00:05:32;;;;;;;4.93;3.50;;;4.00;99.90;;;;;;5033611;28;20452;-64
2021/04/14 00:07:58;;;;;;;4.37;3.70;;;4.10;99.90;;;;;;5030863;28;20414;-63
2021/04/14 00:10:27;;;;;;;3.80;3.43;;;4.00;99.90;;;;;;5029267;28;20427;-64
2021/04/14 00:12:53;;;;;;;5.67;3.93;;;4.00;99.90;;;;;;5033796;28;20433;-64
2021/04/14 00:15:43;;;;;;;4.17;3.33;;;3.90;99.90;;;;;;5033165;28;20905;-64
2021/04/14 00:18:09;;;;;;;3.47;3.17;;;4.00;99.90;;;;;;5032675;28;20636;-64
2021/04/14 00:20:35;;;;;;;4.37;3.23;;;3.90;99.90;;;;;;5036156;28;20454;-64
2021/04/14 00:23:01;;;;;;;6.27;3.77;;;3.80;99.90;;;;;;5033491;28;20449;-64
2021/04/14 00:25:30;;;;;;;3.50;3.20;;;3.80;99.90;;;;;;5033171;28;20795;-64
2021/04/14 00:27:55;;;;;;;4.87;3.20;;;3.90;99.90;;;;;;5033491;28;20498;-64
2021/04/14 00:30:22;;;;;;;3.17;2.87;;;3.80;99.90;;;;;;5032349;28;20509;-64
2021/04/14 00:32:49;;;;;;;4.23;3.43;;;3.80;99.90;;;;;;5033254;28;20187;-64
2021/04/14 00:35:17;;;;;;;3.80;3.03;;;3.80;99.90;;;;;;5033396;28;20779;-64
2021/04/14 00:37:43;;;;;;;7.07;3.40;;;3.70;99.90;;;;;;5033500;28;20405;-64
2021/04/14 00:40:14;;;;;;;4.27;3.53;;;3.70;99.90;;;;;;5033104;28;20890;-64
2021/04/14 00:42:39;;;;;;;4.37;3.90;;;3.70;99.90;;;;;;5033344;28;20481;-64
2021/04/14 00:45:07;;;;;;;3.80;3.20;;;3.70;99.90;;;;;;5022754;28;20458;-64
2021/04/14 00:47:33;;;;;;;4.53;3.30;;;3.70;99.90;;;;;;5022517;28;20174;-63
2021/04/14 00:49:58;;;;;;;3.67;2.60;;;3.60;99.90;;;;;;5024422;28;20426;-64
2021/04/14 00:52:24;;;;;;;3.73;3.13;;;3.70;99.90;;;;;;5027720;28;20953;-64
2021/04/14 00:54:50;;;;;;;4.73;2.63;;;3.80;99.90;;;;;;5032832;28;20525;-64
2021/04/14 00:57:15;;;;;;;4.23;2.97;;;3.80;99.90;;;;;;5033550;28;20357;-64
2021/04/14 00:59:41;;;;;;;3.80;3.33;;;4.00;99.90;;;;;;5033420;28;20178;-64
2021/04/14 01:02:07;;;;;;;3.27;2.97;;;4.00;99.90;;;;;;5033443;28;20207;-64
2021/04/14 01:04:36;;;;;;;3.60;2.90;;;4.00;99.90;;;;;;5020601;28;20245;-64
2021/04/14 01:07:02;;;;;;;3.50;3.20;;;4.00;99.90;;;;;;5032193;28;20410;-64
2021/04/14 01:09:28;;;;;;;4.27;3.87;;;3.90;99.90;;;;;;5032456;28;20442;-64
2021/04/14 01:11:56;;;;;;;3.73;3.20;;;3.70;99.90;;;;;;5031154;28;20460;-64
2021/04/14 01:14:22;;;;;;;6.13;3.43;;;3.60;99.90;;;;;;5028171;28;20584;-64
2021/04/14 01:16:47;;;;;;;3.57;3.20;;;3.50;99.90;;;;;;5013245;28;20463;-64
2021/04/14 01:19:13;;;;;;;4.50;3.50;;;3.50;99.90;;;;;;5013099;28;20183;-64
2021/04/14 01:21:41;;;;;;;4.43;3.40;;;3.40;99.90;;;;;;5013366;28;20190;-64
2021/04/14 01:24:10;;;;;;;3.23;2.93;;;3.40;99.90;;;;;;5015107;28;20197;-64
2021/04/14 01:26:35;;;;;;;3.00;2.70;;;3.40;99.90;;;;;;5032674;28;20801;-64
2021/04/14 01:29:01;;;;;;;3.13;2.83;;;3.50;99.90;;;;;;5034337;28;20420;-64
2021/04/14 01:31:33;;;;;;;3.20;2.87;;;3.50;99.90;;;;;;5036391;28;20175;-63
2021/04/14 01:34:04;;;;;;;4.53;3.53;;;3.40;99.90;;;;;;5036480;28;20196;-64
2021/04/14 01:36:30;;;;;;;4.30;3.90;;;3.40;99.90;;;;;;5036610;28;20448;-64
2021/04/14 01:38:56;;;;;;;4.43;2.97;;;3.50;99.90;;;;;;5036182;28;20418;-64
2021/04/14 01:41:22;;;;;;;3.37;3.07;;;3.50;99.90;;;;;;5036322;28;20555;-64
2021/04/14 01:43:47;;;;;;;3.77;3.47;;;3.50;99.90;;;;;;5037072;28;20945;-63
2021/04/14 01:46:13;;;;;;;3.47;3.17;;;3.50;99.90;;;;;;5023903;28;20183;-64
2021/04/14 01:48:39;;;;;;;4.40;4.00;;;3.50;99.90;;;;;;5036127;28;20179;-64
2021/04/14 01:51:07;;;;;;;3.80;3.23;;;3.50;99.90;;;;;;5028465;28;20520;-64
2021/04/14 01:53:33;;;;;;;6.03;3.80;;;3.50;99.90;;;;;;5027991;28;20210;-64
2021/04/14 01:55:58;;;;;;;3.50;3.20;;;3.50;99.90;;;;;;5018189;28;20787;-64
2021/04/14 01:58:25;;;;;;;8.80;3.93;;;3.50;99.90;;;;;;5036504;28;20180;-64
2021/04/14 02:00:57;;;;;;;6.50;3.63;;;3.50;99.90;;;;;;5036574;28;20199;-64
2021/04/14 02:03:24;;;;;;;4.03;3.00;;;3.50;99.90;;;;;;5036065;28;20449;-64
2021/04/14 02:05:51;;;;;;;3.93;3.47;;;3.40;99.90;;;;;;5036353;28;20412;-64
2021/04/14 02:08:18;;;;;;;4.20;3.80;;;3.30;99.90;;;;;;5036240;28;20409;-64
2021/04/14 02:10:45;;;;;;;3.97;3.20;;;3.40;99.90;;;;;;5035162;28;20424;-64
2021/04/14 02:13:17;;;;;;;4.17;3.43;;;3.40;99.90;;;;;;5036030;28;20944;-64
2021/04/14 02:15:43;;;;;;;3.37;3.17;;;3.50;99.90;;;;;;5035481;28;20524;-64
2021/04/14 02:18:08;;;;;;;4.33;3.60;;;3.50;99.90;;;;;;5036422;28;20841;-63
2021/04/14 02:20:35;;;;;;;5.90;3.10;;;3.50;99.90;;;;;;5036465;28;20202;-64
2021/04/14 02:23:30;;;;;;;3.70;3.40;;;3.60;99.90;;;;;;5036238;28;20429;-64
2021/04/14 02:25:58;;;;;;;3.57;3.27;;;3.50;99.90;;;;;;5023621;28;20938;-65
2021/04/14 02:28:24;;;;;;;3.43;3.13;;;3.40;99.90;;;;;;5036568;28;20412;-64
2021/04/14 02:30:51;;;;;;;3.40;3.20;;;3.40;99.90;;;;;;5029354;28;20794;-64
2021/04/14 02:33:18;;;;;;;3.97;3.57;;;3.40;99.90;;;;;;5015908;28;20503;-64
2021/04/14 02:35:43;;;;;;;4.33;3.77;;;3.40;99.90;;;;;;5016019;28;20456;-64
2021/04/14 02:38:11;;;;;;;8.10;3.50;;;3.40;99.90;;;;;;5016122;28;20449;-64
2021/04/14 02:40:37;;;;;;;4.30;3.90;;;3.30;99.90;;;;;;5033154;28;20206;-64
2021/04/14 02:43:03;;;;;;;4.50;3.97;;;3.30;99.90;;;;;;5035587;28;20429;-64
2021/04/14 02:45:32;;;;;;;3.40;2.93;;;3.10;99.90;;;;;;5017465;28;20711;-65
2021/04/14 02:47:58;;;;;;;3.50;3.07;;;3.00;99.90;;;;;;5035446;28;20429;-62
2021/04/14 02:50:25;;;;;;;6.00;4.30;;;3.00;99.90;;;;;;5035731;28;20768;-65
2021/04/14 02:52:51;;;;;;;3.70;3.40;;;3.00;99.90;;;;;;5035868;28;20560;-64
2021/04/14 02:55:18;;;;;;;12.40;3.80;;;3.00;99.90;;;;;;5035625;28;20420;-64
2021/04/14 02:57:43;;;;;;;4.73;3.60;;;3.00;99.90;;;;;;5035494;28;20504;-64
2021/04/14 03:00:12;;;;;;;4.97;3.33;;;2.90;99.90;;;;;;5035795;28;20513;-64
2021/04/14 03:02:37;;;;;;;5.07;3.60;;;3.00;99.90;;;;;;5035458;28;20578;-64
2021/04/14 03:05:06;;;;;;;4.37;3.30;;;2.90;99.90;;;;;;5023554;28;20429;-63
2021/04/14 03:07:31;;;;;;;5.70;3.70;;;2.90;99.90;;;;;;5034811;28;20466;-64
2021/04/14 03:09:57;;;;;;;3.53;3.20;;;2.90;99.90;;;;;;5033889;28;20441;-64
2021/04/14 03:12:22;;;;;;;5.00;3.87;;;2.80;99.90;;;;;;5016769;28;20211;-64
2021/04/14 03:14:48;;;;;;;4.50;3.40;;;2.80;99.90;;;;;;5015366;28;20183;-64
2021/04/14 03:17:14;;;;;;;5.10;3.60;;;2.80;99.90;;;;;;5015192;28;20179;-64
2021/04/14 03:19:40;;;;;;;5.10;3.83;;;2.80;99.90;;;;;;5015267;28;20179;-64
2021/04/14 03:22:05;;;;;;;4.67;3.33;;;2.90;99.90;;;;;;5015087;28;20202;-64
2021/04/14 03:24:32;;;;;;;4.10;3.70;;;2.80;99.90;;;;;;5032797;28;20594;-64
2021/04/14 03:26:57;;;;;;;3.67;3.33;;;2.80;99.90;;;;;;5034747;28;20185;-64
2021/04/14 03:29:23;;;;;;;5.40;4.40;;;2.80;99.90;;;;;;5034511;28;20900;-64
2021/04/14 03:31:49;;;;;;;3.57;3.27;;;2.80;99.90;;;;;;5034635;28;20176;-64
2021/04/14 03:34:15;;;;;;;3.77;2.80;;;2.70;99.90;;;;;;5034643;28;20254;-64
2021/04/14 03:36:40;;;;;;;4.00;3.60;;;2.80;99.90;;;;;;5034780;28;20213;-64
2021/04/14 03:39:06;;;;;;;5.10;4.00;;;2.80;99.90;;;;;;5034773;28;20411;-63
2021/04/14 03:41:32;;;;;;;5.33;3.67;;;2.70;99.90;;;;;;5033276;28;20200;-64
2021/04/14 03:43:58;;;;;;;6.63;4.43;;;2.80;99.90;;;;;;5023653;28;20452;-64
2021/04/14 03:46:25;;;;;;;5.40;3.87;;;2.80;99.90;;;;;;5024944;28;20584;-63
2021/04/14 03:48:51;;;;;;;4.67;3.43;;;2.80;99.90;;;;;;5034366;28;20840;-64
2021/04/14 03:51:18;;;;;;;4.03;3.67;;;2.80;99.90;;;;;;5023994;28;20414;-64
2021/04/14 03:53:43;;;;;;;4.23;3.80;;;2.80;99.90;;;;;;5014453;28;20438;-63
2021/04/14 03:56:10;;;;;;;4.13;3.30;;;3.00;99.90;;;;;;5013238;28;20414;-62
2021/04/14 03:58:38;;;;;;;4.37;3.97;;;3.00;99.90;;;;;;5014292;28;20175;-62
2021/04/14 04:01:08;;;;;;;3.50;3.20;;;2.90;99.90;;;;;;5014308;28;20442;-64
2021/04/14 04:03:34;;;;;;;4.90;3.43;;;2.90;99.90;;;;;;5024590;28;20443;-62
2021/04/14 04:06:00;;;;;;;4.63;3.77;;;2.80;99.90;;;;;;5034338;28;20397;-61
2021/04/14 04:08:25;;;;;;;5.47;3.43;;;2.80;99.90;;;;;;5034028;28;20404;-62
2021/04/14 04:10:51;;;;;;;7.73;4.20;;;2.80;99.90;;;;;;5032524;28;20269;-64
2021/04/14 04:13:17;;;;;;;4.30;3.90;;;2.80;99.90;;;;;;5033838;28;20194;-63
2021/04/14 04:15:44;;;;;;;4.20;3.80;;;2.90;99.90;;;;;;5033398;28;20192;-63
2021/04/14 04:18:09;;;;;;;5.30;3.63;;;2.90;99.90;;;;;;5036042;28;20420;-64
2021/04/14 04:20:36;;;;;;;6.70;4.60;;;2.80;99.90;;;;;;5033480;28;20546;-64
2021/04/14 04:23:02;;;;;;;5.00;3.70;;;2.70;99.90;;;;;;5034038;28;20561;-64
2021/04/14 04:25:29;;;;;;;3.77;3.37;;;2.60;99.90;;;;;;5033334;28;20417;-64
2021/04/14 04:27:55;;;;;;;9.57;3.47;;;2.70;99.90;;;;;;5033135;28;20416;-64
2021/04/14 04:30:22;;;;;;;7.57;4.97;;;2.70;99.90;;;;;;5033486;28;20439;-64
2021/04/14 04:32:47;;;;;;;6.50;5.60;;;2.70;99.90;;;;;;5033777;28;20432;-64
2021/04/14 04:35:13;;;;;;;7.00;5.37;;;2.70;99.90;;;;;;5021201;28;20427;-65
2021/04/14 04:37:39;;;;;;;7.50;5.37;;;2.60;99.90;;;;;;5032367;28;20550;-64
2021/04/14 04:40:07;;;;;;;6.40;4.93;;;2.60;99.90;;;;;;5033185;28;20566;-64
2021/04/14 04:42:33;;;;;;;7.80;5.50;;;2.60;99.90;;;;;;5013470;28;20203;-65
2021/04/14 04:44:59;;;;;;;7.67;4.57;;;2.60;99.90;;;;;;5022755;28;20420;-64
2021/04/14 04:47:24;;;;;;;6.50;4.63;;;2.70;99.90;;;;;;5015726;28;20405;-65
2021/04/14 04:49:50;;;;;;;5.07;4.63;;;2.70;99.90;;;;;;5033513;28;20174;-65
2021/04/14 04:52:16;;;;;;;18.00;5.60;;;2.70;99.90;;;;;;5033344;28;20230;-65
2021/04/14 04:54:41;;;;;;;6.17;4.70;;;2.70;99.90;;;;;;5013462;28;20929;-65
2021/04/14 04:57:07;;;;;;;4.07;3.67;;;2.80;99.90;;;;;;5013403;28;20175;-65
2021/04/14 04:59:33;;;;;;;5.30;4.30;;;2.80;99.90;;;;;;5013467;28;20528;-64
2021/04/14 05:02:00;;;;;;;5.57;3.97;;;2.90;99.90;;;;;;5013253;28;20463;-65
2021/04/14 05:04:25;;;;;;;4.93;3.60;;;2.90;99.90;;;;;;5019360;28;20702;-64
2021/04/14 05:06:51;;;;;;;6.40;4.40;;;2.90;99.90;;;;;;5020045;28;20501;-64
2021/04/14 05:09:16;;;;;;;4.43;3.40;;;2.90;99.90;;;;;;5026781;28;20181;-65
2021/04/14 05:11:42;;;;;;;5.47;4.73;;;2.90;99.90;;;;;;5038790;28;20651;-66
2021/04/14 05:14:08;;;;;;;7.50;5.70;;;2.90;99.90;;;;;;5037827;28;20620;-64
2021/04/14 05:16:33;;;;;;;5.13;4.63;;;3.00;99.90;;;;;;5039419;28;20683;-65
2021/04/14 05:18:59;;;;;;;6.73;6.00;;;3.00;99.90;;;;;;5039657;28;20578;-64
2021/04/14 05:21:25;;;;;;;7.77;6.43;;;3.00;99.90;;;;;;5040251;28;20194;-64
2021/04/14 05:23:51;;;;;;;9.60;5.97;;;3.00;99.90;;;;;;5039990;28;20221;-65
2021/04/14 05:26:17;;;;;;;4.87;4.20;;;3.10;99.90;;;;;;5026854;28;20449;-65
2021/04/14 05:28:43;;;;;;;5.27;4.40;;;3.10;99.90;;;;;;5039199;28;20642;-64
2021/04/14 05:31:09;;;;;;;5.77;4.60;;;3.20;99.90;;;;;;5037419;28;20424;-65
2021/04/14 05:33:35;;;;;;;4.53;4.10;;;3.20;99.90;;;;;;5039789;28;20783;-65
2021/04/14 05:36:02;;;;;;;4.47;3.63;;;3.20;99.90;;;;;;5039459;28;20179;-65
2021/04/14 05:38:28;;;;;;;6.00;4.87;;;3.20;99.90;;;;;;5039153;28;20917;-65
2021/04/14 05:40:54;;;;;;;4.73;4.23;;;3.10;99.90;;;;;;5038545;28;20812;-65
2021/04/14 05:43:25;;;;;;;7.77;4.10;;;3.20;99.90;;;;;;5038223;28;20427;-65
2021/04/14 05:45:54;;;;;;;5.67;4.40;;;3.30;99.90;;;;;;5038613;28;20745;-66
2021/04/14 05:48:20;;;;;;;6.17;4.57;;;3.40;99.90;;;;;;5039039;28;20409;-65
2021/04/14 05:50:46;;;;;;;6.63;4.73;;;3.40;99.90;;;;;;5038420;28;20428;-65
2021/04/14 05:53:11;;;;;;;6.13;4.80;;;3.40;99.90;;;;;;5039215;28;20519;-65
2021/04/14 05:55:37;;;;;;;6.30;4.63;;;3.60;99.90;;;;;;5038587;28;20542;-65
2021/04/14 05:58:02;;;;;;;8.50;6.03;;;3.60;99.90;;;;;;5039075;28;20181;-65
2021/04/14 06:00:28;;;;;;;6.93;5.50;;;3.60;99.90;;;;;;5038709;28;20290;-65
2021/04/14 06:02:54;;;;;;;8.20;4.70;;;3.70;99.90;;;;;;5039020;28;20578;-65
2021/04/14 06:05:22;;;;;;;6.90;5.33;;;3.80;99.90;;;;;;5039079;28;20249;-65
2021/04/14 06:07:48;;;;;;;6.63;5.37;;;3.90;99.90;;;;;;5039310;28;20220;-65
2021/04/14 06:10:16;;;;;;;7.07;5.67;;;4.00;99.90;;;;;;5038577;28;20805;-64
2021/04/14 06:12:42;;;;;;;6.53;5.83;;;4.00;99.90;;;;;;5021361;28;21571;-63
2021/04/14 06:15:13;;;;;;;8.47;6.10;;;4.10;99.90;;;;;;5036457;28;20416;-63
2021/04/14 06:17:39;;;;;;;15.10;8.43;;;4.20;99.90;;;;;;5018569;28;20945;-63
2021/04/14 06:20:07;;;;;;;16.37;9.30;;;4.30;99.90;;;;;;5036845;28;20417;-63
2021/04/14 06:22:33;;;;;;;11.40;8.87;;;4.50;99.90;;;;;;5018590;28;20966;-64
2021/04/14 06:24:59;;;;;;;8.67;7.13;;;4.60;99.90;;;;;;5036112;28;20974;-65
2021/04/14 06:28:07;;;;;;;12.00;7.50;;;4.80;99.90;;;;;;5038633;28;20529;-65
2021/04/14 06:30:15;;;;;;;8.53;6.83;;;4.90;99.90;;;;;;5033017;28;20180;-65
2021/04/14 06:32:41;;;;;;;9.80;6.77;;;5.00;99.90;;;;;;5035928;28;20430;-65
2021/04/14 06:35:07;;;;;;;7.53;5.50;;;5.10;99.90;;;;;;5036191;28;20410;-65
2021/04/14 06:37:33;;;;;;;7.00;6.30;;;5.10;99.90;;;;;;5038177;28;20807;-64
2021/04/14 06:43:02;;;;;;;10.70;8.50;;;5.00;99.90;;;;;;5014562;28;20771;-65
2021/04/14 06:45:35;;;;;;;7.57;6.73;;;5.40;99.90;;;;;;5019265;28;20171;-65
2021/04/14 06:48:20;;;;;;;8.53;7.60;;;5.30;99.90;;;;;;5037743;28;20386;-65
2021/04/14 06:50:55;;;;;;;8.50;7.70;;;5.50;99.90;;;;;;5037644;28;20401;-65
2021/04/14 06:53:46;;;;;;;13.03;8.20;;;5.50;99.90;;;;;;5037071;28;20480;-64
2021/04/14 06:56:17;;;;;;;12.70;8.70;;;5.60;99.90;;;;;;5031925;28;20454;-62
2021/04/14 06:59:02;;;;;;;9.97;7.53;;;5.50;99.90;;;;;;5026641;28;20475;-64
2021/04/14 07:01:50;;;;;;;10.60;8.50;;;5.40;99.90;;;;;;5035900;28;20460;-64
2021/04/14 07:04:24;;;;;;;9.10;7.27;;;5.60;99.90;;;;;;5035317;28;20442;-64
2021/04/14 07:06:50;;;;;;;11.17;7.63;;;5.40;99.90;;;;;;5035692;28;20383;-65
2021/04/14 07:09:32;;;;;;;9.27;8.00;;;5.30;99.90;;;;;;5035579;28;20405;-65
2021/04/14 07:11:59;;;;;;;11.37;8.20;;;5.20;99.90;;;;;;5034726;28;20389;-63
2021/04/14 07:14:26;;;;;;;8.73;7.83;;;5.40;99.90;;;;;;5035109;28;20408;-64
2021/04/14 07:17:25;;;;;;;12.43;8.63;;;5.50;99.90;;;;;;5035370;28;20968;-65
2021/04/14 07:20:18;;;;;;;11.77;8.10;;;5.70;99.90;;;;;;5035988;28;20456;-62
2021/04/14 07:23:01;;;;;;;9.90;8.80;;;5.80;99.90;;;;;;5034947;28;20449;-61
2021/04/14 07:25:41;;;;;;;9.07;8.00;;;5.80;99.90;;;;;;5034665;28;20386;-62
2021/04/14 07:28:12;;;;;;;9.70;8.27;;;5.90;99.90;;;;;;5033797;28;20390;-61
2021/04/14 07:30:45;;;;;;;11.50;8.50;;;5.80;99.90;;;;;;5035292;28;20821;-62
2021/04/14 07:33:13;;;;;;;11.10;8.63;;;5.90;99.90;;;;;;5033411;28;20527;-60
2021/04/14 07:35:48;;;;;;;11.53;8.23;;;5.70;99.90;;;;;;5017316;28;20934;-63
2021/04/14 07:38:44;;;;;;;12.47;8.07;;;5.40;99.90;;;;;;5034812;28;20400;-63
2021/04/14 07:41:13;;;;;;;13.30;9.80;;;5.40;99.90;;;;;;5034445;28;20491;-63
2021/04/14 07:44:10;;;;;;;12.80;7.90;;;5.60;99.90;;;;;;5034810;28;20426;-63
2021/04/14 07:46:37;;;;;;;10.63;8.23;;;5.70;99.90;;;;;;5034533;28;20394;-63
2021/04/14 07:49:05;;;;;;;9.43;7.63;;;5.90;99.90;;;;;;5034701;28;20394;-64
2021/04/14 07:51:31;;;;;;;9.40;7.47;;;5.70;99.90;;;;;;5034629;28;20424;-62
2021/04/14 07:54:04;;;;;;;10.40;8.10;;;5.80;99.90;;;;;;5034935;28;20422;-64
2021/04/14 07:56:43;;;;;;;7.77;7.00;;;5.80;99.90;;;;;;5034078;28;20393;-64
2021/04/14 07:59:13;;;;;;;7.90;6.47;;;6.00;99.90;;;;;;5034387;28;20819;-63
2021/04/14 08:01:52;;;;;;;6.90;6.20;;;6.30;99.90;;;;;;5016097;28;21045;-63
2021/04/14 08:04:31;;;;;;;7.20;6.17;;;6.50;99.90;;;;;;5033135;28;20957;-63
2021/04/14 08:07:19;;;;;;;5.90;5.40;;;6.50;99.70;;;;;;5034498;28;20905;-62
2021/04/14 08:10:03;;;;;;;6.43;5.83;;;6.60;99.90;;;;;;5034305;28;20497;-62
2021/04/14 08:12:35;;;;;;;7.50;6.67;;;6.60;99.90;;;;;;5034077;28;20467;-63
2021/04/14 08:15:17;;;;;;;6.90;5.03;;;6.60;99.80;;;;;;5032856;28;20405;-64
2021/04/14 08:17:45;;;;;;;7.50;5.23;;;6.70;99.70;;;;;;5034353;28;20937;-63
2021/04/14 08:20:32;;;;;;;5.60;4.37;;;7.00;99.20;;;;;;5034118;28;20398;-63
2021/04/14 08:23:19;;;;;;;6.50;5.80;;;6.90;99.20;;;;;;5034363;28;20442;-63
2021/04/14 08:25:54;;;;;;;7.17;5.40;;;7.00;99.30;;;;;;5029122;28;20414;-62
2021/04/14 08:28:48;;;;;;;6.97;5.60;;;7.30;99.20;;;;;;5033755;28;20406;-63
2021/04/14 08:31:45;;;;;;;6.60;5.20;;;7.10;98.90;;;;;;5033351;28;20419;-62
2021/04/14 08:34:19;;;;;;;6.40;4.70;;;7.50;98.30;;;;;;5026381;28;20324;-62
2021/04/14 08:37:07;;;;;;;5.97;5.47;;;7.10;98.10;;;;;;5031869;28;21241;-63
2021/04/14 08:39:36;;;;;;;5.43;4.80;;;7.20;98.20;;;;;;5012287;28;20835;-63
2021/04/14 08:42:13;;;;;;;8.23;4.33;;;7.60;98.10;;;;;;5013901;28;20451;-63
2021/04/14 08:44:41;;;;;;;4.43;4.03;;;7.60;97.70;;;;;;5029782;28;21000;-64
2021/04/14 08:47:13;;;;;;;6.33;4.90;;;7.50;97.60;;;;;;5033449;28;20406;-63
2021/04/14 08:49:40;;;;;;;7.73;4.53;;;7.60;97.30;;;;;;5033171;28;20417;-64
2021/04/14 08:52:17;;;;;;;10.33;5.00;;;7.50;97.10;;;;;;5032332;28;20418;-63
2021/04/14 08:54:43;;;;;;;7.00;4.90;;;7.60;97.30;;;;;;5032844;28;20498;-63
2021/04/14 08:57:09;;;;;;;6.77;4.43;;;7.60;96.90;;;;;;5021613;28;20512;-63
2021/04/14 08:59:37;;;;;;;4.40;4.00;;;7.60;97.40;;;;;;5033291;28;20164;-63
2021/04/14 09:02:11;;;;;;;5.60;4.43;;;7.50;97.30;;;;;;5033123;28;20970;-64
2021/04/14 09:04:41;;;;;;;5.40;4.60;;;7.80;97.00;;;;;;5034318;28;20382;-63
2021/04/14 09:07:08;;;;;;;9.13;5.70;;;7.70;96.60;;;;;;5033707;28;20914;-63
2021/04/14 09:09:44;;;;;;;5.50;4.60;;;7.60;96.90;;;;;;5033568;28;20444;-63
2021/04/14 09:12:10;;;;;;;5.93;4.87;;;7.60;96.90;;;;;;5032911;28;20891;-63
2021/04/14 09:14:36;;;;;;;5.30;4.30;;;7.60;96.50;;;;;;5033373;28;20435;-61
2021/04/14 09:17:18;;;;;;;10.80;5.20;;;7.80;97.20;;;;;;5034237;28;20225;-63
2021/04/14 09:19:46;;;;;;;6.93;4.50;;;8.10;96.10;;;;;;5034250;28;20401;-63
2021/04/14 09:22:17;;;;;;;5.80;3.70;;;8.20;96.20;;;;;;5034112;28;20868;-62
2021/04/14 09:24:54;;;;;;;6.00;4.60;;;8.20;95.60;;;;;;5034007;28;20394;-60
2021/04/14 09:27:38;;;;;;;6.20;4.70;;;8.20;95.60;;;;;;5032987;28;20429;-62
2021/04/14 09:30:22;;;;;;;4.50;4.10;;;8.30;95.60;;;;;;5034458;28;20402;-63
2021/04/14 09:32:48;;;;;;;4.30;3.90;;;8.50;95.00;;;;;;5033315;28;20924;-63
2021/04/14 09:35:34;;;;;;;5.00;4.50;;;8.60;94.90;;;;;;5033424;28;20489;-63
2021/04/14 09:38:13;;;;;;;6.37;4.40;;;8.70;94.80;;;;;;5026133;28;20190;-63
2021/04/14 09:40:39;;;;;;;4.40;4.00;;;8.90;93.30;;;;;;5032875;28;20551;-63
2021/04/14 09:43:17;;;;;;;6.17;4.73;;;9.00;93.40;;;;;;5033070;28;20873;-63
2021/04/14 09:46:00;;;;;;;7.00;4.20;;;9.20;93.40;;;;;;5033331;28;20451;-63
2021/04/14 09:48:45;;;;;;;5.40;4.03;;;9.20;93.00;;;;;;5033502;28;20478;-64
2021/04/14 09:51:29;;;;;;;7.43;4.77;;;9.20;93.10;;;;;;5036282;28;20386;-64
2021/04/14 09:53:59;;;;;;;8.10;4.50;;;9.50;92.50;;;;;;5036541;28;20420;-63
2021/04/14 09:56:30;;;;;;;4.97;4.20;;;9.60;91.80;;;;;;5036137;28;20827;-64
2021/04/14 09:59:29;;;;;;;7.43;4.80;;;9.70;91.20;;;;;;5036759;28;20407;-63
2021/04/14 10:02:01;;;;;;;5.40;3.10;;;9.70;91.30;;;;;;5036182;28;20576;-63
2021/04/14 10:04:27;;;;;;;3.67;3.13;;;9.80;90.10;;;;;;5037021;28;20783;-64
2021/04/14 10:07:32;;;;;;;3.63;2.80;;;10.00;85.50;;;;;;5036371;28;20394;-64
2021/04/14 10:10:15;;;;;;;3.63;3.23;;;10.00;82.90;;;;;;5005641;28;20436;-64
2021/04/14 10:12:41;;;;;;;3.50;3.20;;;10.10;83.20;;;;;;5015973;28;20445;-64
2021/04/14 10:15:08;;;;;;;3.93;3.07;;;10.00;81.50;;;;;;4998713;28;20414;-64
2021/04/14 10:17:35;;;;;;;3.13;2.83;;;10.00;80.90;;;;;;5016479;28;20251;-64
2021/04/14 10:20:08;;;;;;;3.57;2.67;;;10.10;80.90;;;;;;5016319;28;20398;-64
2021/04/14 10:22:40;;;;;;;3.43;3.13;;;10.30;81.10;;;;;;5016232;28;20474;-64
2021/04/14 10:25:24;;;;;;;5.60;3.23;;;10.40;79.10;;;;;;5016591;28;20434;-63
2021/04/14 10:28:05;;;;;;;6.03;2.93;;;10.50;78.90;;;;;;5052270;28;20411;-63
2021/04/14 10:30:34;;;;;;;6.47;2.83;;;9.90;80.40;;;;;;5056406;28;20389;-64
2021/04/14 10:33:21;;;;;;;4.40;2.90;;;10.00;78.00;;;;;;5055899;28;20409;-64
2021/04/14 10:35:49;;;;;;;4.57;4.10;;;10.30;78.00;;;;;;5056230;28;20464;-64
2021/04/14 10:38:25;;;;;;;5.47;4.03;;;10.20;80.50;;;;;;5056041;28;20395;-64
2021/04/14 10:40:51;;;;;;;3.87;3.00;;;10.10;84.00;;;;;;5035702;28;20489;-64
2021/04/14 10:43:20;;;;;;;5.80;3.60;;;9.80;86.50;;;;;;5035528;28;20438;-64
2021/04/14 10:46:15;;;;;;;6.67;3.50;;;9.10;89.30;;;;;;5035827;28;20591;-64
2021/04/14 10:48:46;;;;;;;4.10;2.90;;;8.70;90.40;;;;;;5035763;28;20533;-64
2021/04/14 10:51:18;;;;;;;3.50;2.77;;;8.60;91.00;;;;;;5035483;28;20430;-64
2021/04/14 10:53:46;;;;;;;3.50;3.20;;;8.20;91.70;;;;;;5035545;28;20425;-64
2021/04/14 10:56:21;;;;;;;7.90;3.27;;;8.60;91.50;;;;;;5034009;28;20417;-63
2021/04/14 10:58:49;;;;;;;3.27;2.97;;;9.00;90.20;;;;;;5024852;28;20447;-64
2021/04/14 11:01:17;;;;;;;6.90;3.43;;;9.20;88.30;;;;;;5014974;28;20435;-65
2021/04/14 11:03:45;;;;;;;5.73;3.57;;;9.10;87.30;;;;;;5015330;28;20963;-65
2021/04/14 11:06:12;;;;;;;4.30;3.27;;;8.90;88.20;;;;;;4998802;28;20543;-65
2021/04/14 11:08:41;;;;;;;4.13;3.47;;;9.40;86.50;;;;;;5018091;28;20851;-65
2021/04/14 11:11:07;;;;;;;2.70;2.50;;;10.80;81.30;;;;;;5035833;28;20455;-65
2021/04/14 11:13:36;;;;;;;3.70;3.40;;;12.20;76.90;;;;;;5034894;28;20418;-63
2021/04/14 11:16:02;;;;;;;3.53;2.70;;;13.20;71.50;;;;;;5035495;28;20593;-65
2021/04/14 11:18:34;;;;;;;3.63;2.50;;;13.50;68.60;;;;;;5035046;28;20927;-63
2021/04/14 11:23:34;;;;;;;3.23;2.60;;;13.60;64.20;;;;;;5035250;28;20426;-65
2021/04/14 11:26:12;;;;;;;4.37;2.90;;;13.60;65.80;;;;;;5035543;28;20404;-63
2021/04/14 11:28:49;;;;;;;4.33;3.17;;;14.20;64.30;;;;;;5035030;28;20417;-64
2021/04/14 11:31:38;;;;;;;4.40;3.60;;;15.00;61.90;;;;;;5035280;28;20393;-64
2021/04/14 11:34:25;;;;;;;6.30;3.17;;;15.30;61.20;;;;;;5034879;28;20421;-64
2021/04/14 11:37:04;;;;;;;4.17;3.30;;;15.60;58.20;;;;;;5035008;28;20400;-64
2021/04/14 11:39:52;;;;;;;3.07;2.77;;;15.10;59.60;;;;;;5035101;28;20820;-64
2021/04/14 11:42:24;;;;;;;7.20;3.80;;;15.20;59.70;;;;;;5034188;28;20985;-64
2021/04/14 11:44:53;;;;;;;3.93;3.30;;;13.60;62.10;;;;;;5034929;28;20415;-64
2021/04/14 11:47:34;;;;;;;4.90;3.60;;;13.10;63.20;;;;;;5034560;28;20436;-64
2021/04/14 11:50:21;;;;;;;4.00;3.40;;;13.30;64.50;;;;;;5034812;28;20493;-63
2021/04/14 11:52:56;;;;;;;3.03;2.73;;;13.70;62.90;;;;;;5034980;28;20422;-64
2021/04/14 11:55:22;;;;;;;3.60;3.30;;;14.00;62.80;;;;;;5034493;28;20457;-63
2021/04/14 11:57:55;;;;;;;8.23;4.20;;;13.50;59.00;;;;;;5034650;28;20403;-64
2021/04/14 12:00:27;;;;;;;5.37;3.53;;;13.40;61.90;;;;;;5034590;28;20245;-65
2021/04/14 12:02:59;;;;;;;3.80;3.07;;;13.80;61.10;;;;;;5034047;28;20527;-64
2021/04/14 12:05:24;;;;;;;2.97;2.40;;;13.50;59.40;;;;;;5034739;28;20932;-65
2021/04/14 12:07:50;;;;;;;5.40;2.80;;;13.60;58.90;;;;;;5034649;28;20488;-65
2021/04/14 12:10:15;;;;;;;5.60;3.63;;;12.60;60.40;;;;;;5034341;28;20180;-65
2021/04/14 12:12:41;;;;;;;3.57;2.50;;;13.00;59.70;;;;;;5033151;28;20280;-65
2021/04/14 12:15:08;;;;;;;3.50;2.90;;;12.60;60.00;;;;;;5034055;28;20219;-65
2021/04/14 12:17:34;;;;;;;3.47;2.63;;;12.70;60.00;;;;;;5034231;28;20532;-65
2021/04/14 12:20:00;;;;;;;3.03;2.30;;;12.70;59.50;;;;;;5034346;28;20449;-65
2021/04/14 12:22:26;;;;;;;3.83;2.70;;;12.30;60.20;;;;;;5033992;28;20457;-65
2021/04/14 12:24:52;;;;;;;6.13;3.50;;;11.90;61.80;;;;;;5032997;28;20168;-65
2021/04/14 12:27:17;;;;;;;6.07;2.93;;;11.90;61.30;;;;;;5033827;28;20167;-61
2021/04/14 12:29:44;;;;;;;3.27;2.97;;;11.90;63.30;;;;;;5033902;28;20195;-65
2021/04/14 12:32:10;;;;;;;6.30;3.70;;;12.20;63.50;;;;;;5036076;28;20178;-65
2021/04/14 12:34:35;;;;;;;5.17;3.53;;;12.30;63.90;;;;;;5033945;28;20413;-65
2021/04/14 12:37:01;;;;;;;4.93;3.10;;;12.10;70.80;;;;;;5033872;28;20903;-65
2021/04/14 12:39:27;;;;;;;6.47;3.30;;;11.20;74.30;;;;;;5034035;28;20178;-65
2021/04/14 12:41:52;;;;;;;4.23;3.40;;;11.50;75.00;;;;;;5033168;28;20195;-65
2021/04/14 12:44:21;;;;;;;3.63;2.70;;;11.50;75.60;;;;;;5033569;28;20184;-65
2021/04/14 12:46:48;;;;;;;3.30;3.00;;;11.20;74.10;;;;;;5034007;28;20163;-65
2021/04/14 12:49:15;;;;;;;3.33;3.10;;;11.10;75.50;;;;;;5015903;28;20414;-66
2021/04/14 12:51:53;;;;;;;4.40;3.73;;;11.20;74.80;;;;;;5033758;28;20911;-65
2021/04/14 12:54:19;;;;;;;4.00;3.57;;;11.10;76.40;;;;;;5033440;28;20429;-65
2021/04/14 12:56:58;;;;;;;10.60;3.70;;;11.30;76.20;;;;;;5033326;28;20746;-66
2021/04/14 12:59:30;;;;;;;4.80;3.43;;;11.40;75.40;;;;;;5033717;28;20166;-65
2021/04/14 13:02:03;;;;;;;4.67;4.23;;;11.30;77.10;;;;;;5032935;28;20449;-65
2021/04/14 13:04:40;;;;;;;3.93;3.30;;;11.70;75.20;;;;;;5033573;28;20398;-65
2021/04/14 13:07:16;;;;;;;4.13;3.37;;;11.30;75.40;;;;;;5033588;28;20389;-65
2021/04/14 13:09:42;;;;;;;4.13;3.43;;;10.90;75.30;;;;;;5034339;28;20942;-65
2021/04/14 13:12:26;;;;;;;3.57;3.27;;;10.80;76.30;;;;;;5033649;28;20448;-68
2021/04/14 13:14:53;;;;;;;4.30;3.50;;;10.90;77.00;;;;;;5033965;28;20394;-63
2021/04/14 13:17:22;;;;;;;2.97;2.77;;;10.80;77.60;;;;;;5033906;28;20398;-61